sensor_id;sensor_type;location;lat;lon;timestamp;pressure;altitude;pressure_sealevel;temperature
15626;BMP180;7912;51.376;6.126;2023-02-15T00:00:20;102610.00;;;7.50
15626;BMP180;7912;51.376;6.126;2023-02-15T00:02:47;102611.00;;;7.50
15626;BMP180;7912;51.376;6.126;2023-02-15T00:05:15;102619.00;;;7.50
15626;BMP180;7912;51.376;6.126;2023-02-15T00:07:42;102615.00;;;7.50
15626;BMP180;7912;51.376;6.126;2023-02-15T00:10:09;102598.00;;;7.50
15626;BMP180;7912;51.376;6.126;2023-02-15T00:12:38;102605.00;;;7.50
15626;BMP180;7912;51.376;6.126;2023-02-15T00:15:06;102600.00;;;7.50
15626;BMP180;7912;51.376;6.126;2023-02-15T00:17:33;102600.00;;;7.50
15626;BMP180;7912;51.376;6.126;2023-02-15T00:20:00;102595.00;;;7.50
15626;BMP180;7912;51.376;6.126;2023-02-15T00:22:28;102590.00;;;7.40
15626;BMP180;7912;51.376;6.126;2023-02-15T00:24:55;102594.00;;;7.40
15626;BMP180;7912;51.376;6.126;2023-02-15T00:27:23;102597.00;;;7.40
15626;BMP180;7912;51.376;6.126;2023-02-15T00:29:50;102592.00;;;7.40
15626;BMP180;7912;51.376;6.126;2023-02-15T00:32:17;102589.00;;;7.40
15626;BMP180;7912;51.376;6.126;2023-02-15T00:34:44;102585.00;;;7.40
15626;BMP180;7912;51.376;6.126;2023-02-15T00:37:11;102577.00;;;7.40
15626;BMP180;7912;51.376;6.126;2023-02-15T00:39:38;102579.00;;;7.40
15626;BMP180;7912;51.376;6.126;2023-02-15T00:42:05;102584.00;;;7.40
15626;BMP180;7912;51.376;6.126;2023-02-15T00:44:33;102583.00;;;7.30
15626;BMP180;7912;51.376;6.126;2023-02-15T00:47:00;102591.00;;;7.30
15626;BMP180;7912;51.376;6.126;2023-02-15T00:49:27;102590.00;;;7.30
15626;BMP180;7912;51.376;6.126;2023-02-15T00:51:54;102585.00;;;7.30
15626;BMP180;7912;51.376;6.126;2023-02-15T00:54:21;102595.00;;;7.20
15626;BMP180;7912;51.376;6.126;2023-02-15T00:56:48;102585.00;;;7.20
15626;BMP180;7912;51.376;6.126;2023-02-15T00:59:16;102577.00;;;7.20
15626;BMP180;7912;51.376;6.126;2023-02-15T01:01:43;102578.00;;;7.10
15626;BMP180;7912;51.376;6.126;2023-02-15T01:04:28;102578.00;;;7.10
15626;BMP180;7912;51.376;6.126;2023-02-15T01:06:56;102572.00;;;7.00
15626;BMP180;7912;51.376;6.126;2023-02-15T01:09:23;102580.00;;;7.00
15626;BMP180;7912;51.376;6.126;2023-02-15T01:11:51;102574.00;;;7.00
15626;BMP180;7912;51.376;6.126;2023-02-15T01:14:18;102580.00;;;6.90
15626;BMP180;7912;51.376;6.126;2023-02-15T01:16:46;102574.00;;;6.90
15626;BMP180;7912;51.376;6.126;2023-02-15T01:19:13;102573.00;;;6.80
15626;BMP180;7912;51.376;6.126;2023-02-15T01:21:40;102568.00;;;6.80
15626;BMP180;7912;51.376;6.126;2023-02-15T01:24:14;102570.00;;;6.80
15626;BMP180;7912;51.376;6.126;2023-02-15T01:26:41;102576.00;;;6.80
15626;BMP180;7912;51.376;6.126;2023-02-15T01:29:09;102569.00;;;6.70
15626;BMP180;7912;51.376;6.126;2023-02-15T01:31:36;102563.00;;;6.70
15626;BMP180;7912;51.376;6.126;2023-02-15T01:34:06;102565.00;;;6.70
15626;BMP180;7912;51.376;6.126;2023-02-15T01:36:34;102554.00;;;6.70
15626;BMP180;7912;51.376;6.126;2023-02-15T01:39:02;102558.00;;;6.70
15626;BMP180;7912;51.376;6.126;2023-02-15T01:41:29;102553.00;;;6.70
15626;BMP180;7912;51.376;6.126;2023-02-15T01:44:03;102533.00;;;6.70
15626;BMP180;7912;51.376;6.126;2023-02-15T01:46:40;102533.00;;;6.70
15626;BMP180;7912;51.376;6.126;2023-02-15T01:49:17;102541.00;;;6.70
15626;BMP180;7912;51.376;6.126;2023-02-15T01:51:48;102526.00;;;6.70
15626;BMP180;7912;51.376;6.126;2023-02-15T01:58:05;102527.00;;;6.60
15626;BMP180;7912;51.376;6.126;2023-02-15T02:00:34;102541.00;;;6.60
15626;BMP180;7912;51.376;6.126;2023-02-15T02:03:03;102533.00;;;6.60
15626;BMP180;7912;51.376;6.126;2023-02-15T02:05:31;102530.00;;;6.60
15626;BMP180;7912;51.376;6.126;2023-02-15T02:08:35;102533.00;;;6.60
15626;BMP180;7912;51.376;6.126;2023-02-15T02:11:09;102528.00;;;6.60
15626;BMP180;7912;51.376;6.126;2023-02-15T02:13:38;102519.00;;;6.60
15626;BMP180;7912;51.376;6.126;2023-02-15T02:41:17;102510.00;;;6.40
15626;BMP180;7912;51.376;6.126;2023-02-15T02:44:19;102500.00;;;6.30
15626;BMP180;7912;51.376;6.126;2023-02-15T02:49:45;102510.00;;;6.30
15626;BMP180;7912;51.376;6.126;2023-02-15T02:52:38;102487.00;;;6.30
15626;BMP180;7912;51.376;6.126;2023-02-15T02:58:27;102493.00;;;6.30
15626;BMP180;7912;51.376;6.126;2023-02-15T03:01:02;102491.00;;;6.30
15626;BMP180;7912;51.376;6.126;2023-02-15T03:03:40;102486.00;;;6.30
15626;BMP180;7912;51.376;6.126;2023-02-15T03:07:14;102492.00;;;6.30
15626;BMP180;7912;51.376;6.126;2023-02-15T03:09:25;102486.00;;;6.30
15626;BMP180;7912;51.376;6.126;2023-02-15T03:12:02;102473.00;;;6.30
15626;BMP180;7912;51.376;6.126;2023-02-15T03:14:32;102468.00;;;6.20
15626;BMP180;7912;51.376;6.126;2023-02-15T03:17:01;102469.00;;;6.20
15626;BMP180;7912;51.376;6.126;2023-02-15T03:19:34;102473.00;;;6.20
15626;BMP180;7912;51.376;6.126;2023-02-15T03:22:15;102478.00;;;6.20
15626;BMP180;7912;51.376;6.126;2023-02-15T03:27:47;102463.00;;;6.20
15626;BMP180;7912;51.376;6.126;2023-02-15T03:30:18;102466.00;;;6.10
15626;BMP180;7912;51.376;6.126;2023-02-15T03:32:50;102473.00;;;6.20
15626;BMP180;7912;51.376;6.126;2023-02-15T03:35:23;102458.00;;;6.10
15626;BMP180;7912;51.376;6.126;2023-02-15T03:37:58;102463.00;;;6.10
15626;BMP180;7912;51.376;6.126;2023-02-15T03:40:40;102454.00;;;6.10
15626;BMP180;7912;51.376;6.126;2023-02-15T03:44:04;102455.00;;;6.00
15626;BMP180;7912;51.376;6.126;2023-02-15T03:46:48;102459.00;;;6.00
15626;BMP180;7912;51.376;6.126;2023-02-15T03:49:53;102453.00;;;6.00
15626;BMP180;7912;51.376;6.126;2023-02-15T03:52:25;102465.00;;;5.90
15626;BMP180;7912;51.376;6.126;2023-02-15T03:54:53;102451.00;;;5.90
15626;BMP180;7912;51.376;6.126;2023-02-15T03:57:27;102447.00;;;5.90
15626;BMP180;7912;51.376;6.126;2023-02-15T04:05:44;102453.00;;;5.80
15626;BMP180;7912;51.376;6.126;2023-02-15T04:08:12;102457.00;;;5.80
15626;BMP180;7912;51.376;6.126;2023-02-15T04:10:39;102454.00;;;5.80
15626;BMP180;7912;51.376;6.126;2023-02-15T04:13:21;102454.00;;;5.80
15626;BMP180;7912;51.376;6.126;2023-02-15T04:15:49;102450.00;;;5.80
15626;BMP180;7912;51.376;6.126;2023-02-15T04:18:35;102448.00;;;5.80
15626;BMP180;7912;51.376;6.126;2023-02-15T04:21:24;102447.00;;;5.70
15626;BMP180;7912;51.376;6.126;2023-02-15T04:24:11;102453.00;;;5.70
15626;BMP180;7912;51.376;6.126;2023-02-15T04:26:58;102449.00;;;5.70
15626;BMP180;7912;51.376;6.126;2023-02-15T04:29:27;102443.00;;;5.60
15626;BMP180;7912;51.376;6.126;2023-02-15T04:31:58;102450.00;;;5.60
15626;BMP180;7912;51.376;6.126;2023-02-15T04:34:26;102443.00;;;5.60
15626;BMP180;7912;51.376;6.126;2023-02-15T04:36:53;102432.00;;;5.60
15626;BMP180;7912;51.376;6.126;2023-02-15T04:39:20;102437.00;;;5.50
15626;BMP180;7912;51.376;6.126;2023-02-15T04:42:27;102440.00;;;5.50
15626;BMP180;7912;51.376;6.126;2023-02-15T04:44:54;102437.00;;;5.50
15626;BMP180;7912;51.376;6.126;2023-02-15T04:47:41;102440.00;;;5.50
15626;BMP180;7912;51.376;6.126;2023-02-15T04:50:08;102440.00;;;5.50
15626;BMP180;7912;51.376;6.126;2023-02-15T04:52:35;102445.00;;;5.40
15626;BMP180;7912;51.376;6.126;2023-02-15T04:55:03;102439.00;;;5.40
15626;BMP180;7912;51.376;6.126;2023-02-15T04:57:51;102433.00;;;5.40
15626;BMP180;7912;51.376;6.126;2023-02-15T05:00:18;102436.00;;;5.30
15626;BMP180;7912;51.376;6.126;2023-02-15T05:02:46;102443.00;;;5.30
15626;BMP180;7912;51.376;6.126;2023-02-15T05:05:13;102433.00;;;5.30
15626;BMP180;7912;51.376;6.126;2023-02-15T05:07:42;102420.00;;;5.30
15626;BMP180;7912;51.376;6.126;2023-02-15T05:10:09;102432.00;;;5.30
15626;BMP180;7912;51.376;6.126;2023-02-15T05:12:36;102427.00;;;5.20
15626;BMP180;7912;51.376;6.126;2023-02-15T05:15:04;102418.00;;;5.20
15626;BMP180;7912;51.376;6.126;2023-02-15T05:17:31;102418.00;;;5.20
15626;BMP180;7912;51.376;6.126;2023-02-15T05:19:58;102415.00;;;5.20
15626;BMP180;7912;51.376;6.126;2023-02-15T05:22:25;102418.00;;;5.20
15626;BMP180;7912;51.376;6.126;2023-02-15T05:24:52;102421.00;;;5.20
15626;BMP180;7912;51.376;6.126;2023-02-15T05:27:38;102418.00;;;5.20
15626;BMP180;7912;51.376;6.126;2023-02-15T05:30:24;102416.00;;;5.20
15626;BMP180;7912;51.376;6.126;2023-02-15T05:32:51;102419.00;;;5.20
15626;BMP180;7912;51.376;6.126;2023-02-15T05:35:19;102414.00;;;5.10
15626;BMP180;7912;51.376;6.126;2023-02-15T05:37:46;102411.00;;;5.10
15626;BMP180;7912;51.376;6.126;2023-02-15T05:40:13;102412.00;;;5.10
15626;BMP180;7912;51.376;6.126;2023-02-15T05:42:41;102413.00;;;5.10
15626;BMP180;7912;51.376;6.126;2023-02-15T05:45:08;102411.00;;;5.10
15626;BMP180;7912;51.376;6.126;2023-02-15T05:47:36;102411.00;;;5.10
15626;BMP180;7912;51.376;6.126;2023-02-15T05:50:03;102420.00;;;5.10
15626;BMP180;7912;51.376;6.126;2023-02-15T05:52:31;102421.00;;;5.00
15626;BMP180;7912;51.376;6.126;2023-02-15T05:54:58;102419.00;;;5.00
15626;BMP180;7912;51.376;6.126;2023-02-15T05:57:27;102414.00;;;5.00
15626;BMP180;7912;51.376;6.126;2023-02-15T05:59:54;102420.00;;;5.00
15626;BMP180;7912;51.376;6.126;2023-02-15T06:02:21;102431.00;;;5.00
15626;BMP180;7912;51.376;6.126;2023-02-15T06:04:48;102419.00;;;5.00
15626;BMP180;7912;51.376;6.126;2023-02-15T06:07:15;102405.00;;;5.00
15626;BMP180;7912;51.376;6.126;2023-02-15T06:09:42;102421.00;;;5.00
15626;BMP180;7912;51.376;6.126;2023-02-15T06:12:12;102421.00;;;5.00
15626;BMP180;7912;51.376;6.126;2023-02-15T06:14:39;102418.00;;;5.00
15626;BMP180;7912;51.376;6.126;2023-02-15T06:17:06;102418.00;;;4.90
15626;BMP180;7912;51.376;6.126;2023-02-15T06:19:33;102421.00;;;4.90
15626;BMP180;7912;51.376;6.126;2023-02-15T06:22:00;102417.00;;;4.90
15626;BMP180;7912;51.376;6.126;2023-02-15T06:24:27;102420.00;;;4.90
15626;BMP180;7912;51.376;6.126;2023-02-15T06:31:24;102430.00;;;4.80
15626;BMP180;7912;51.376;6.126;2023-02-15T06:42:11;102415.00;;;4.70
15626;BMP180;7912;51.376;6.126;2023-02-15T06:48:48;102415.00;;;4.70
15626;BMP180;7912;51.376;6.126;2023-02-15T06:51:16;102412.00;;;4.70
15626;BMP180;7912;51.376;6.126;2023-02-15T06:53:43;102412.00;;;4.70
15626;BMP180;7912;51.376;6.126;2023-02-15T06:56:11;102408.00;;;4.70
15626;BMP180;7912;51.376;6.126;2023-02-15T07:02:57;102413.00;;;4.70
15626;BMP180;7912;51.376;6.126;2023-02-15T07:05:26;102413.00;;;4.70
15626;BMP180;7912;51.376;6.126;2023-02-15T07:07:59;102403.00;;;4.80
15626;BMP180;7912;51.376;6.126;2023-02-15T07:10:27;102418.00;;;4.80
15626;BMP180;7912;51.376;6.126;2023-02-15T07:17:36;102391.00;;;4.80
15626;BMP180;7912;51.376;6.126;2023-02-15T07:24:14;102392.00;;;4.80
15626;BMP180;7912;51.376;6.126;2023-02-15T07:30:51;102381.00;;;4.90
15626;BMP180;7912;51.376;6.126;2023-02-15T07:33:19;102381.00;;;4.90
15626;BMP180;7912;51.376;6.126;2023-02-15T07:40:05;102386.00;;;5.00
15626;BMP180;7912;51.376;6.126;2023-02-15T07:42:32;102394.00;;;5.00
15626;BMP180;7912;51.376;6.126;2023-02-15T08:01:39;102369.00;;;5.20
15626;BMP180;7912;51.376;6.126;2023-02-15T08:04:07;102375.00;;;5.20
15626;BMP180;7912;51.376;6.126;2023-02-15T08:06:37;102362.00;;;5.30
15626;BMP180;7912;51.376;6.126;2023-02-15T08:09:07;102356.00;;;5.40
15626;BMP180;7912;51.376;6.126;2023-02-15T08:11:38;102358.00;;;5.50
15626;BMP180;7912;51.376;6.126;2023-02-15T08:14:14;102351.00;;;5.50
15626;BMP180;7912;51.376;6.126;2023-02-15T08:16:46;102344.00;;;5.60
15626;BMP180;7912;51.376;6.126;2023-02-15T08:19:24;102346.00;;;5.70
15626;BMP180;7912;51.376;6.126;2023-02-15T08:25:51;102337.00;;;5.70
15626;BMP180;7912;51.376;6.126;2023-02-15T08:28:19;102343.00;;;5.80
15626;BMP180;7912;51.376;6.126;2023-02-15T08:30:46;102351.00;;;5.90
15626;BMP180;7912;51.376;6.126;2023-02-15T08:33:13;102338.00;;;5.90
15626;BMP180;7912;51.376;6.126;2023-02-15T08:35:40;102347.00;;;6.00
15626;BMP180;7912;51.376;6.126;2023-02-15T08:38:07;102346.00;;;6.10
15626;BMP180;7912;51.376;6.126;2023-02-15T08:40:35;102335.00;;;6.10
15626;BMP180;7912;51.376;6.126;2023-02-15T08:43:04;102339.00;;;6.20
15626;BMP180;7912;51.376;6.126;2023-02-15T08:45:36;102330.00;;;6.30
15626;BMP180;7912;51.376;6.126;2023-02-15T08:48:03;102330.00;;;6.40
15626;BMP180;7912;51.376;6.126;2023-02-15T08:50:30;102336.00;;;6.50
15626;BMP180;7912;51.376;6.126;2023-02-15T08:52:58;102333.00;;;6.60
15626;BMP180;7912;51.376;6.126;2023-02-15T08:55:25;102323.00;;;6.70
15626;BMP180;7912;51.376;6.126;2023-02-15T08:57:52;102338.00;;;6.70
15626;BMP180;7912;51.376;6.126;2023-02-15T09:00:22;102334.00;;;6.80
15626;BMP180;7912;51.376;6.126;2023-02-15T09:02:49;102323.00;;;6.90
15626;BMP180;7912;51.376;6.126;2023-02-15T09:05:17;102326.00;;;6.90
15626;BMP180;7912;51.376;6.126;2023-02-15T09:07:44;102325.00;;;7.00
15626;BMP180;7912;51.376;6.126;2023-02-15T09:10:11;102312.00;;;7.10
15626;BMP180;7912;51.376;6.126;2023-02-15T09:12:39;102317.00;;;7.20
15626;BMP180;7912;51.376;6.126;2023-02-15T09:15:06;102309.00;;;7.30
15626;BMP180;7912;51.376;6.126;2023-02-15T09:17:34;102311.00;;;7.30
15626;BMP180;7912;51.376;6.126;2023-02-15T09:20:01;102322.00;;;7.40
15626;BMP180;7912;51.376;6.126;2023-02-15T09:22:29;102311.00;;;7.50
15626;BMP180;7912;51.376;6.126;2023-02-15T09:24:58;102316.00;;;7.70
15626;BMP180;7912;51.376;6.126;2023-02-15T09:27:44;102323.00;;;7.80
15626;BMP180;7912;51.376;6.126;2023-02-15T09:30:49;102318.00;;;8.00
15626;BMP180;7912;51.376;6.126;2023-02-15T09:33:16;102312.00;;;8.10
15626;BMP180;7912;51.376;6.126;2023-02-15T09:35:43;102314.00;;;8.30
15626;BMP180;7912;51.376;6.126;2023-02-15T09:38:10;102310.00;;;8.40
15626;BMP180;7912;51.376;6.126;2023-02-15T09:48:38;102302.00;;;8.90
15626;BMP180;7912;51.376;6.126;2023-02-15T09:51:19;102307.00;;;9.00
15626;BMP180;7912;51.376;6.126;2023-02-15T09:58:26;102310.00;;;9.30
15626;BMP180;7912;51.376;6.126;2023-02-15T10:06:24;102296.00;;;9.70
15626;BMP180;7912;51.376;6.126;2023-02-15T10:20:57;102300.00;;;10.30
15626;BMP180;7912;51.376;6.126;2023-02-15T10:24:14;102301.00;;;10.50
15626;BMP180;7912;51.376;6.126;2023-02-15T10:26:48;102295.00;;;10.70
15626;BMP180;7912;51.376;6.126;2023-02-15T10:34:47;102283.00;;;12.30
15626;BMP180;7912;51.376;6.126;2023-02-15T10:37:37;102282.00;;;12.80
15626;BMP180;7912;51.376;6.126;2023-02-15T11:08:10;102250.00;;;18.10
15626;BMP180;7912;51.376;6.126;2023-02-15T11:11:03;102254.00;;;18.40
15626;BMP180;7912;51.376;6.126;2023-02-15T11:13:43;102251.00;;;18.60
15626;BMP180;7912;51.376;6.126;2023-02-15T11:16:22;102237.00;;;18.80
15626;BMP180;7912;51.376;6.126;2023-02-15T11:19:01;102235.00;;;18.90
15626;BMP180;7912;51.376;6.126;2023-02-15T11:21:43;102238.00;;;19.00
15626;BMP180;7912;51.376;6.126;2023-02-15T11:24:18;102236.00;;;19.20
15626;BMP180;7912;51.376;6.126;2023-02-15T11:27:05;102236.00;;;19.50
15626;BMP180;7912;51.376;6.126;2023-02-15T11:30:02;102220.00;;;20.00
15626;BMP180;7912;51.376;6.126;2023-02-15T11:32:35;102217.00;;;20.40
15626;BMP180;7912;51.376;6.126;2023-02-15T11:37:53;102217.00;;;21.20
15626;BMP180;7912;51.376;6.126;2023-02-15T11:43:06;102214.00;;;21.50
15626;BMP180;7912;51.376;6.126;2023-02-15T11:45:39;102222.00;;;21.60
15626;BMP180;7912;51.376;6.126;2023-02-15T11:48:13;102213.00;;;21.80
15626;BMP180;7912;51.376;6.126;2023-02-15T11:50:43;102211.00;;;22.00
15626;BMP180;7912;51.376;6.126;2023-02-15T11:53:18;102212.00;;;22.00
15626;BMP180;7912;51.376;6.126;2023-02-15T11:55:49;102206.00;;;22.00
15626;BMP180;7912;51.376;6.126;2023-02-15T11:58:37;102195.00;;;22.20
15626;BMP180;7912;51.376;6.126;2023-02-15T12:04:16;102185.00;;;23.10
15626;BMP180;7912;51.376;6.126;2023-02-15T12:10:23;102178.00;;;24.10
15626;BMP180;7912;51.376;6.126;2023-02-15T12:13:12;102178.00;;;24.30
15626;BMP180;7912;51.376;6.126;2023-02-15T12:15:50;102176.00;;;24.40
15626;BMP180;7912;51.376;6.126;2023-02-15T12:18:39;102165.00;;;24.40
15626;BMP180;7912;51.376;6.126;2023-02-15T12:21:25;102172.00;;;24.30
15626;BMP180;7912;51.376;6.126;2023-02-15T12:32:34;102146.00;;;24.30
15626;BMP180;7912;51.376;6.126;2023-02-15T12:35:29;102160.00;;;24.20
15626;BMP180;7912;51.376;6.126;2023-02-15T12:38:23;102148.00;;;24.10
15626;BMP180;7912;51.376;6.126;2023-02-15T12:44:29;102139.00;;;24.00
15626;BMP180;7912;51.376;6.126;2023-02-15T12:51:08;102138.00;;;24.00
15626;BMP180;7912;51.376;6.126;2023-02-15T12:53:37;102139.00;;;24.10
15626;BMP180;7912;51.376;6.126;2023-02-15T12:56:09;102141.00;;;24.10
15626;BMP180;7912;51.376;6.126;2023-02-15T12:59:13;102141.00;;;24.20
15626;BMP180;7912;51.376;6.126;2023-02-15T13:01:42;102140.00;;;24.30
15626;BMP180;7912;51.376;6.126;2023-02-15T13:04:30;102138.00;;;24.50
15626;BMP180;7912;51.376;6.126;2023-02-15T13:07:01;102133.00;;;24.70
15626;BMP180;7912;51.376;6.126;2023-02-15T13:09:35;102130.00;;;24.80
15626;BMP180;7912;51.376;6.126;2023-02-15T13:12:24;102118.00;;;24.80
15626;BMP180;7912;51.376;6.126;2023-02-15T13:14:55;102129.00;;;24.90
15626;BMP180;7912;51.376;6.126;2023-02-15T13:17:32;102114.00;;;25.00
15626;BMP180;7912;51.376;6.126;2023-02-15T13:20:06;102114.00;;;25.20
15626;BMP180;7912;51.376;6.126;2023-02-15T13:23:33;102121.00;;;25.30
15626;BMP180;7912;51.376;6.126;2023-02-15T13:26:26;102105.00;;;25.30
15626;BMP180;7912;51.376;6.126;2023-02-15T13:29:06;102108.00;;;25.40
15626;BMP180;7912;51.376;6.126;2023-02-15T13:31:35;102105.00;;;25.60
15626;BMP180;7912;51.376;6.126;2023-02-15T13:34:20;102105.00;;;25.80
15626;BMP180;7912;51.376;6.126;2023-02-15T13:40:33;102107.00;;;25.80
15626;BMP180;7912;51.376;6.126;2023-02-15T13:43:27;102100.00;;;25.60
15626;BMP180;7912;51.376;6.126;2023-02-15T14:01:53;102090.00;;;23.80
15626;BMP180;7912;51.376;6.126;2023-02-15T14:08:47;102088.00;;;23.10
15626;BMP180;7912;51.376;6.126;2023-02-15T14:20:01;102078.00;;;23.40
15626;BMP180;7912;51.376;6.126;2023-02-15T14:22:31;102079.00;;;23.30
15626;BMP180;7912;51.376;6.126;2023-02-15T14:25:24;102080.00;;;23.10
15626;BMP180;7912;51.376;6.126;2023-02-15T14:30:49;102080.00;;;22.80
15626;BMP180;7912;51.376;6.126;2023-02-15T14:33:39;102084.00;;;22.70
15626;BMP180;7912;51.376;6.126;2023-02-15T14:36:18;102074.00;;;22.60
15626;BMP180;7912;51.376;6.126;2023-02-15T14:43:27;102077.00;;;22.50
15626;BMP180;7912;51.376;6.126;2023-02-15T14:48:50;102061.00;;;22.40
15626;BMP180;7912;51.376;6.126;2023-02-15T14:54:08;102079.00;;;22.20
15626;BMP180;7912;51.376;6.126;2023-02-15T14:56:36;102074.00;;;22.10
15626;BMP180;7912;51.376;6.126;2023-02-15T14:59:24;102068.00;;;22.10
15626;BMP180;7912;51.376;6.126;2023-02-15T15:01:58;102057.00;;;22.10
15626;BMP180;7912;51.376;6.126;2023-02-15T15:04:38;102060.00;;;22.10
15626;BMP180;7912;51.376;6.126;2023-02-15T15:07:22;102058.00;;;22.00
15626;BMP180;7912;51.376;6.126;2023-02-15T15:12:46;102080.00;;;21.50
15626;BMP180;7912;51.376;6.126;2023-02-15T15:15:44;102076.00;;;21.30
15626;BMP180;7912;51.376;6.126;2023-02-15T15:18:46;102091.00;;;21.00
15626;BMP180;7912;51.376;6.126;2023-02-15T15:21:51;102097.00;;;20.70
15626;BMP180;7912;51.376;6.126;2023-02-15T15:42:51;102110.00;;;19.20
15626;BMP180;7912;51.376;6.126;2023-02-15T15:46:09;102111.00;;;19.00
15626;BMP180;7912;51.376;6.126;2023-02-15T15:48:41;102107.00;;;18.80
15626;BMP180;7912;51.376;6.126;2023-02-15T15:59:34;102108.00;;;18.10
15626;BMP180;7912;51.376;6.126;2023-02-15T16:02:15;102109.00;;;18.00
15626;BMP180;7912;51.376;6.126;2023-02-15T16:04:46;102112.00;;;17.90
15626;BMP180;7912;51.376;6.126;2023-02-15T16:10:06;102105.00;;;17.60
15626;BMP180;7912;51.376;6.126;2023-02-15T16:12:37;102104.00;;;17.50
15626;BMP180;7912;51.376;6.126;2023-02-15T16:15:23;102106.00;;;17.40
15626;BMP180;7912;51.376;6.126;2023-02-15T16:17:57;102105.00;;;17.30
15626;BMP180;7912;51.376;6.126;2023-02-15T16:23:47;102101.00;;;17.10
15626;BMP180;7912;51.376;6.126;2023-02-15T16:29:30;102101.00;;;16.80
15626;BMP180;7912;51.376;6.126;2023-02-15T16:32:05;102103.00;;;16.70
15626;BMP180;7912;51.376;6.126;2023-02-15T16:34:33;102101.00;;;16.60
15626;BMP180;7912;51.376;6.126;2023-02-15T16:37:26;102109.00;;;16.50
15626;BMP180;7912;51.376;6.126;2023-02-15T16:39:55;102105.00;;;16.40
15626;BMP180;7912;51.376;6.126;2023-02-15T16:42:24;102114.00;;;16.30
15626;BMP180;7912;51.376;6.126;2023-02-15T16:45:00;102113.00;;;16.20
15626;BMP180;7912;51.376;6.126;2023-02-15T16:47:39;102106.00;;;16.10
15626;BMP180;7912;51.376;6.126;2023-02-15T16:50:37;102104.00;;;16.00
15626;BMP180;7912;51.376;6.126;2023-02-15T16:53:29;102108.00;;;15.90
15626;BMP180;7912;51.376;6.126;2023-02-15T16:56:04;102112.00;;;15.80
15626;BMP180;7912;51.376;6.126;2023-02-15T17:03:04;102106.00;;;15.50
15626;BMP180;7912;51.376;6.126;2023-02-15T17:05:55;102116.00;;;15.40
15626;BMP180;7912;51.376;6.126;2023-02-15T17:08:29;102104.00;;;15.40
15626;BMP180;7912;51.376;6.126;2023-02-15T17:11:05;102106.00;;;15.30
15626;BMP180;7912;51.376;6.126;2023-02-15T17:25:39;102134.00;;;14.70
15626;BMP180;7912;51.376;6.126;2023-02-15T17:28:19;102127.00;;;14.60
15626;BMP180;7912;51.376;6.126;2023-02-15T17:30:49;102133.00;;;14.60
15626;BMP180;7912;51.376;6.126;2023-02-15T17:41:37;102144.00;;;14.20
15626;BMP180;7912;51.376;6.126;2023-02-15T17:44:04;102135.00;;;14.10
15626;BMP180;7912;51.376;6.126;2023-02-15T17:46:36;102140.00;;;14.10
15626;BMP180;7912;51.376;6.126;2023-02-15T17:49:04;102136.00;;;14.10
15626;BMP180;7912;51.376;6.126;2023-02-15T17:55:41;102140.00;;;13.80
15626;BMP180;7912;51.376;6.126;2023-02-15T17:58:20;102146.00;;;13.80
15626;BMP180;7912;51.376;6.126;2023-02-15T18:04:48;102141.00;;;13.60
15626;BMP180;7912;51.376;6.126;2023-02-15T18:07:34;102133.00;;;13.50
15626;BMP180;7912;51.376;6.126;2023-02-15T18:10:19;102141.00;;;13.50
15626;BMP180;7912;51.376;6.126;2023-02-15T18:13:05;102133.00;;;13.40
15626;BMP180;7912;51.376;6.126;2023-02-15T18:15:33;102141.00;;;13.40
15626;BMP180;7912;51.376;6.126;2023-02-15T18:18:01;102133.00;;;13.30
15626;BMP180;7912;51.376;6.126;2023-02-15T18:20:35;102137.00;;;13.30
15626;BMP180;7912;51.376;6.126;2023-02-15T18:23:03;102146.00;;;13.20
15626;BMP180;7912;51.376;6.126;2023-02-15T18:25:30;102140.00;;;13.20
15626;BMP180;7912;51.376;6.126;2023-02-15T18:27:57;102139.00;;;13.10
15626;BMP180;7912;51.376;6.126;2023-02-15T18:31:05;102136.00;;;13.00
15626;BMP180;7912;51.376;6.126;2023-02-15T18:37:29;102138.00;;;12.90
15626;BMP180;7912;51.376;6.126;2023-02-15T18:39:56;102140.00;;;12.80
15626;BMP180;7912;51.376;6.126;2023-02-15T18:42:34;102140.00;;;12.80
15626;BMP180;7912;51.376;6.126;2023-02-15T18:45:14;102142.00;;;12.70
15626;BMP180;7912;51.376;6.126;2023-02-15T18:48:20;102141.00;;;12.60
15626;BMP180;7912;51.376;6.126;2023-02-15T18:50:49;102144.00;;;12.50
15626;BMP180;7912;51.376;6.126;2023-02-15T18:53:20;102152.00;;;12.50
15626;BMP180;7912;51.376;6.126;2023-02-15T18:59:30;102155.00;;;12.20
15626;BMP180;7912;51.376;6.126;2023-02-15T19:01:58;102156.00;;;12.20
15626;BMP180;7912;51.376;6.126;2023-02-15T19:04:27;102161.00;;;12.10
15626;BMP180;7912;51.376;6.126;2023-02-15T19:06:54;102161.00;;;12.00
15626;BMP180;7912;51.376;6.126;2023-02-15T19:09:45;102148.00;;;12.00
15626;BMP180;7912;51.376;6.126;2023-02-15T19:12:14;102150.00;;;11.90
15626;BMP180;7912;51.376;6.126;2023-02-15T19:14:41;102140.00;;;11.90
15626;BMP180;7912;51.376;6.126;2023-02-15T19:17:18;102135.00;;;11.80
15626;BMP180;7912;51.376;6.126;2023-02-15T19:19:47;102145.00;;;11.80
15626;BMP180;7912;51.376;6.126;2023-02-15T19:22:27;102153.00;;;11.80
15626;BMP180;7912;51.376;6.126;2023-02-15T19:25:01;102158.00;;;11.70
15626;BMP180;7912;51.376;6.126;2023-02-15T19:27:31;102160.00;;;11.70
15626;BMP180;7912;51.376;6.126;2023-02-15T19:30:10;102155.00;;;11.60
15626;BMP180;7912;51.376;6.126;2023-02-15T19:32:39;102163.00;;;11.60
15626;BMP180;7912;51.376;6.126;2023-02-15T19:35:13;102173.00;;;11.60
15626;BMP180;7912;51.376;6.126;2023-02-15T19:37:46;102165.00;;;11.50
15626;BMP180;7912;51.376;6.126;2023-02-15T19:40:25;102156.00;;;11.50
15626;BMP180;7912;51.376;6.126;2023-02-15T19:42:53;102156.00;;;11.40
15626;BMP180;7912;51.376;6.126;2023-02-15T19:45:28;102150.00;;;11.40
15626;BMP180;7912;51.376;6.126;2023-02-15T19:47:56;102161.00;;;11.30
15626;BMP180;7912;51.376;6.126;2023-02-15T19:50:28;102161.00;;;11.30
15626;BMP180;7912;51.376;6.126;2023-02-15T19:52:56;102170.00;;;11.30
15626;BMP180;7912;51.376;6.126;2023-02-15T19:57:54;102161.00;;;11.30
15626;BMP180;7912;51.376;6.126;2023-02-15T20:00:26;102162.00;;;11.30
15626;BMP180;7912;51.376;6.126;2023-02-15T20:11:46;102169.00;;;11.00
15626;BMP180;7912;51.376;6.126;2023-02-15T20:14:16;102177.00;;;11.00
15626;BMP180;7912;51.376;6.126;2023-02-15T20:16:43;102174.00;;;11.00
15626;BMP180;7912;51.376;6.126;2023-02-15T20:19:11;102171.00;;;11.00
15626;BMP180;7912;51.376;6.126;2023-02-15T20:21:41;102170.00;;;11.00
15626;BMP180;7912;51.376;6.126;2023-02-15T20:24:17;102177.00;;;11.00
15626;BMP180;7912;51.376;6.126;2023-02-15T20:26:53;102176.00;;;11.00